Time;durP1;ratioP1;P1;durP2;ratioP2;P2;SDS_P1;SDS_P2;PMS_P1;PMS_P2;Temp;Humidity;BMP_temperature;BMP_pressure;BME280_temperature;BME280_humidity;BME280_pressure;Samples;Min_cycle;Max_cycle;Signal;HPM_P1;HPM_P2
2022/05/31 00:02:10;;;;;;;8.98;2.13;;;;;;;17.56;40.82;98091.06;5093546;28;20032;-48
2022/05/31 00:04:36;;;;;;;11.30;1.98;;;;;;;17.74;40.89;98098.53;5091974;28;20020;-48
2022/05/31 00:07:04;;;;;;;15.63;2.28;;;;;;;17.89;40.61;98089.88;5093172;28;20028;-48
2022/05/31 00:09:30;;;;;;;7.15;1.70;;;;;;;17.98;40.53;98099.97;5091852;28;20050;-47
2022/05/31 00:11:57;;;;;;;7.07;1.80;;;;;;;17.96;40.59;98100.22;5093069;28;20020;-46
2022/05/31 00:14:24;;;;;;;6.47;1.73;;;;;;;18.11;40.48;98105.56;5092949;28;20024;-48
2022/05/31 00:16:50;;;;;;;9.80;1.80;;;;;;;18.20;40.03;98105.03;5092833;28;20073;-47
2022/05/31 00:19:18;;;;;;;6.50;1.90;;;;;;;18.17;40.08;98109.81;5091662;28;20022;-48
2022/05/31 00:21:49;;;;;;;5.38;1.58;;;;;;;18.17;40.53;98109.81;5093122;28;20020;-48
2022/05/31 00:24:20;;;;;;;9.70;1.90;;;;;;;18.07;40.88;98109.81;5092869;28;20034;-48
2022/05/31 00:26:46;;;;;;;6.47;2.00;;;;;;;18.02;41.08;98109.78;5091830;28;20042;-48
2022/05/31 00:29:12;;;;;;;12.23;2.88;;;;;;;18.03;41.07;98111.41;5093073;28;20024;-47
2022/05/31 00:31:41;;;;;;;5.13;2.15;;;;;;;18.03;41.11;98114.06;5092181;28;20032;-47
2022/05/31 00:34:09;;;;;;;6.63;1.85;;;;;;;17.94;40.94;98119.06;5091150;28;20040;-48
2022/05/31 00:36:37;;;;;;;5.03;1.80;;;;;;;17.78;41.11;98120.84;5092562;28;20450;-48
2022/05/31 00:39:03;;;;;;;4.78;2.35;;;;;;;17.71;41.37;98120.31;5092573;28;20163;-48
2022/05/31 00:41:30;;;;;;;5.35;1.70;;;;;;;17.72;41.07;98119.25;5092560;28;20016;-48
2022/05/31 00:43:59;;;;;;;4.35;1.95;;;;;;;17.74;41.70;98130.38;5092463;28;20039;-48
2022/05/31 00:46:42;;;;;;;3.65;1.70;;;;;;;17.70;41.69;98131.97;5092672;28;20017;-48
2022/05/31 00:49:11;;;;;;;5.22;2.28;;;;;;;17.67;42.13;98131.72;5092519;28;20034;-47
2022/05/31 00:51:42;;;;;;;7.10;2.38;;;;;;;17.83;41.97;98121.91;5092320;28;20024;-48
2022/05/31 00:54:12;;;;;;;6.22;1.55;;;;;;;17.98;41.49;98132.63;5092441;28;20032;-48
2022/05/31 00:56:38;;;;;;;6.50;2.03;;;;;;;18.06;41.27;98137.41;5090913;28;20028;-48
2022/05/31 00:59:09;;;;;;;5.85;1.73;;;;;;;18.14;41.06;98136.91;5092325;28;20397;-48
2022/05/31 01:01:38;;;;;;;8.27;2.38;;;;;;;18.15;41.30;98138.50;5092523;28;20442;-48
2022/05/31 01:04:05;;;;;;;8.80;2.50;;;;;;;18.15;41.38;98135.84;5092181;28;20036;-47
2022/05/31 01:06:32;;;;;;;6.63;1.98;;;;;;;18.07;41.78;98136.38;5092153;28;20024;-47
2022/05/31 01:09:00;;;;;;;3.78;1.98;;;;;;;18.02;41.62;98133.69;5092132;28;20024;-46
2022/05/31 01:11:31;;;;;;;9.57;2.08;;;;;;;18.10;41.39;98143.00;5092036;28;20493;-47
2022/05/31 01:13:57;;;;;;;8.13;2.10;;;;;;;18.15;41.53;98135.06;5092304;28;20480;-47
2022/05/31 01:16:23;;;;;;;9.95;3.17;;;;;;;18.32;41.58;98134.81;5090665;28;20016;-48
2022/05/31 01:18:49;;;;;;;6.22;1.75;;;;;;;18.54;40.96;98138.00;5091953;28;20513;-47
2022/05/31 01:21:15;;;;;;;6.13;1.70;;;;;;;18.42;40.77;98132.16;5091977;28;20050;-47
2022/05/31 01:24:04;;;;;;;6.82;2.55;;;;;;;18.25;41.55;98128.94;5091989;28;20024;-48
2022/05/31 01:26:50;;;;;;;3.75;1.60;;;;;;;18.20;41.82;98126.28;5092011;28;20109;-48
2022/05/31 01:29:35;;;;;;;4.82;2.28;;;;;;;18.21;41.96;98135.84;5090652;28;20036;-48
2022/05/31 01:32:12;;;;;;;6.90;1.60;;;;;;;18.22;41.68;98135.59;5090651;28;20024;-48
2022/05/31 01:34:47;;;;;;;7.28;1.70;;;;;;;18.35;41.50;98135.09;5091688;28;20048;-47
2022/05/31 01:37:13;;;;;;;6.93;1.95;;;;;;;18.29;41.63;98128.16;5091902;28;20030;-47
2022/05/31 01:39:52;;;;;;;3.97;1.42;;;;;;;18.25;41.90;98140.38;5073699;28;20032;-48
2022/05/31 01:42:24;;;;;;;13.23;2.45;;;;;;;18.01;41.88;98134.75;5092051;28;20028;-49
2022/05/31 01:44:55;;;;;;;4.60;1.88;;;;;;;17.99;42.08;98136.88;5094684;28;20028;-48
2022/05/31 01:47:21;;;;;;;8.43;2.00;;;;;;;18.25;42.03;98143.03;5095956;28;20020;-47
2022/05/31 01:49:53;;;;;;;5.28;1.92;;;;;;;18.53;41.29;98140.91;5095880;28;20020;-48
2022/05/31 01:52:19;;;;;;;20.20;2.42;;;;;;;18.42;41.12;98155.28;5094551;28;20030;-48
2022/05/31 01:54:47;;;;;;;4.15;1.50;;;;;;;18.48;41.43;98147.03;5095697;28;20363;-47
2022/05/31 01:57:17;;;;;;;4.20;1.92;;;;;;;18.61;41.74;98153.69;5095726;28;20016;-47
2022/05/31 02:00:06;;;;;;;6.43;2.10;;;;;;;18.74;41.32;98157.69;5095904;28;20369;-47
2022/05/31 02:02:32;;;;;;;6.82;1.60;;;;;;;18.82;40.62;98159.03;5095632;28;20036;-47
2022/05/31 02:04:58;;;;;;;7.32;2.33;;;;;;;18.79;40.70;98156.88;5095613;28;20082;-47
2022/05/31 02:07:25;;;;;;;6.90;1.50;;;;;;;18.83;40.72;98161.41;5095550;28;20505;-46
2022/05/31 02:09:53;;;;;;;5.30;1.85;;;;;;;19.00;40.64;98155.81;5095728;28;20048;-50
2022/05/31 02:12:21;;;;;;;13.23;2.00;;;;;;;19.08;40.71;98162.47;5095412;28;20024;-49
2022/05/31 02:14:48;;;;;;;6.32;2.22;;;;;;;19.13;40.47;98159.78;5095337;28;20576;-49
2022/05/31 02:17:16;;;;;;;8.18;1.77;;;;;;;19.13;40.13;98165.09;5095375;28;20085;-49
2022/05/31 02:19:42;;;;;;;3.20;1.63;;;;;;;19.09;40.04;98161.38;5095233;28;20032;-49
2022/05/31 02:22:13;;;;;;;3.63;1.77;;;;;;;19.06;40.30;98160.06;5095269;28;20047;-50
2022/05/31 02:24:40;;;;;;;5.70;1.92;;;;;;;19.00;40.55;98163.81;5095266;28;20071;-49
2022/05/31 02:27:07;;;;;;;11.63;1.73;;;;;;;19.09;40.62;98172.81;5095155;28;20055;-50
2022/05/31 02:29:39;;;;;;;5.95;1.80;;;;;;;19.12;40.50;98174.97;5095139;28;20034;-49
2022/05/31 02:32:07;;;;;;;4.38;1.70;;;;;;;19.11;40.21;98181.31;5093747;28;20024;-50
2022/05/31 02:34:40;;;;;;;8.30;2.70;;;;;;;19.02;40.83;98182.16;5094765;28;20051;-50
2022/05/31 02:37:06;;;;;;;7.13;1.98;;;;;;;18.98;40.91;98183.75;5077010;28;20031;-49
2022/05/31 02:39:32;;;;;;;10.48;2.10;;;;;;;18.98;40.76;98183.75;5094947;28;20488;-50
2022/05/31 02:41:58;;;;;;;6.22;2.03;;;;;;;18.93;40.80;98182.69;5093556;28;20126;-50
2022/05/31 02:44:24;;;;;;;3.83;1.63;;;;;;;18.94;40.80;98200.25;5093529;28;20035;-49
2022/05/31 02:46:50;;;;;;;10.80;2.13;;;;;;;18.95;40.70;98187.72;5094801;28;20024;-50
2022/05/31 02:49:17;;;;;;;9.32;1.85;;;;;;;19.06;40.75;98197.31;5094810;28;20054;-50
2022/05/31 02:51:46;;;;;;;5.07;1.75;;;;;;;19.15;40.49;98194.91;5094676;28;20056;-50
2022/05/31 02:54:14;;;;;;;5.10;1.65;;;;;;;19.19;40.79;98195.16;5094153;28;20106;-50
2022/05/31 02:56:40;;;;;;;6.35;1.65;;;;;;;19.16;40.94;98202.63;5094536;28;20021;-50
2022/05/31 02:59:05;;;;;;;5.10;1.80;;;;;;;19.22;41.02;98200.75;5094570;28;20028;-50
2022/05/31 03:01:34;;;;;;;3.65;1.48;;;;;;;19.20;41.25;98204.75;5093257;28;20439;-50
2022/05/31 03:04:00;;;;;;;2.47;1.58;;;;;;;19.16;41.20;98201.81;5094518;28;20034;-50
2022/05/31 03:06:26;;;;;;;5.57;1.80;;;;;;;19.03;41.59;98203.16;5093105;28;20107;-50
2022/05/31 03:08:52;;;;;;;7.40;1.83;;;;;;;18.78;42.05;98206.59;5094378;28;20392;-50
2022/05/31 03:11:41;;;;;;;12.98;2.08;;;;;;;18.62;42.49;98202.34;5094343;28;20012;-50
2022/05/31 03:14:30;;;;;;;8.52;2.10;;;;;;;18.60;42.69;98209.78;5092318;28;20047;-50
2022/05/31 03:17:09;;;;;;;10.95;2.28;;;;;;;18.69;41.97;98216.97;5094187;28;20031;-49
2022/05/31 03:19:41;;;;;;;11.95;2.53;;;;;;;18.69;41.85;98200.19;5094247;28;20028;-50
2022/05/31 03:22:14;;;;;;;4.38;1.77;;;;;;;18.62;41.58;98205.00;5093035;28;20401;-50
2022/05/31 03:24:53;;;;;;;5.45;1.90;;;;;;;18.48;41.99;98210.03;5092799;28;20032;-50
2022/05/31 03:27:19;;;;;;;8.68;1.83;;;;;;;18.34;42.05;98202.53;5092737;28;20475;-50
2022/05/31 03:29:48;;;;;;;7.18;1.90;;;;;;;18.30;42.64;98203.34;5092740;28;20069;-50
2022/05/31 03:32:15;;;;;;;9.95;2.35;;;;;;;18.25;43.08;98209.44;5093942;28;20374;-50
2022/05/31 03:34:42;;;;;;;7.07;2.65;;;;;;;18.12;43.65;98207.28;5092274;28;20036;-50
2022/05/31 03:37:08;;;;;;;6.93;2.15;;;;;;;18.07;43.88;98217.88;5092416;28;20039;-50
2022/05/31 03:39:34;;;;;;;6.35;2.08;;;;;;;18.12;43.78;98216.03;5092437;28;20025;-50
2022/05/31 03:42:00;;;;;;;7.78;2.00;;;;;;;18.10;44.10;98209.41;5093752;28;20077;-50
2022/05/31 03:44:25;;;;;;;7.03;2.35;;;;;;;18.15;43.94;98206.78;5092379;28;20020;-50
2022/05/31 03:46:51;;;;;;;8.80;2.63;;;;;;;18.21;43.56;98203.06;5093621;28;20543;-50
2022/05/31 03:49:17;;;;;;;8.68;2.47;;;;;;;18.22;43.40;98199.34;5093638;28;20024;-49
2022/05/31 03:51:43;;;;;;;7.70;2.10;;;;;;;18.19;43.31;98193.75;5093520;28;20099;-50
2022/05/31 03:54:09;;;;;;;12.90;2.58;;;;;;;18.15;43.20;98204.13;5092182;28;20455;-50
2022/05/31 03:56:38;;;;;;;20.10;2.92;;;;;;;18.18;43.71;98195.59;5092051;28;20123;-50
2022/05/31 03:59:04;;;;;;;11.57;3.03;;;;;;;18.27;43.41;98201.19;5092084;28;20020;-48
2022/05/31 04:01:29;;;;;;;12.70;2.70;;;;;;;18.34;43.37;98196.44;5093342;28;20096;-49
2022/05/31 04:03:56;;;;;;;6.88;2.58;;;;;;;18.36;43.55;98194.31;5093323;28;20047;-49
2022/05/31 04:06:22;;;;;;;8.93;2.50;;;;;;;18.40;43.31;98194.59;5092331;28;20558;-49
2022/05/31 04:08:49;;;;;;;8.82;2.53;;;;;;;18.33;43.37;98193.00;5093226;28;20020;-50
2022/05/31 04:11:15;;;;;;;7.00;2.03;;;;;;;18.40;43.75;98189.28;5093152;28;20429;-50
2022/05/31 04:13:41;;;;;;;14.77;2.25;;;;;;;18.57;43.80;98184.50;5093118;28;20052;-49
2022/05/31 04:16:13;;;;;;;10.52;2.55;;;;;;;18.83;42.58;98184.56;5092991;28;20426;-49
2022/05/31 04:18:39;;;;;;;3.88;1.90;;;;;;;19.03;42.41;98183.75;5093032;28;20034;-50
2022/05/31 04:21:09;;;;;;;8.30;2.30;;;;;;;19.16;42.49;98185.88;5092998;28;20450;-49
2022/05/31 04:26:19;;;;;;;5.10;1.75;;;;;;;19.60;40.58;98182.56;5092905;28;20120;-50
2022/05/31 04:28:45;;;;;;;6.72;1.60;;;;;;;19.78;40.16;98178.53;5092834;28;20024;-50
2022/05/31 04:31:11;;;;;;;8.13;2.20;;;;;;;19.93;39.79;98180.31;5092789;28;20520;-48
2022/05/31 04:33:37;;;;;;;8.23;1.60;;;;;;;20.09;38.76;98197.81;5091126;28;20048;-49
2022/05/31 04:36:14;;;;;;;8.30;1.67;;;;;;;20.24;37.78;98199.63;5092921;28;20397;-48
2022/05/31 04:38:40;;;;;;;9.02;1.75;;;;;;;20.35;37.00;98195.03;5092716;28;20036;-48
2022/05/31 04:41:08;;;;;;;16.10;2.83;;;;;;;20.46;36.92;98185.09;5092589;28;20513;-49
2022/05/31 04:43:34;;;;;;;9.32;1.90;;;;;;;20.69;35.71;98191.63;5091222;28;20082;-49
2022/05/31 04:46:22;;;;;;;3.38;1.50;;;;;;;20.85;35.32;98194.97;5092493;28;20024;-49
2022/05/31 04:48:48;;;;;;;14.70;2.00;;;;;;;21.00;35.10;98194.81;5092502;28;20035;-48
2022/05/31 04:51:14;;;;;;;6.90;1.83;;;;;;;21.05;34.91;98213.47;5091111;28;20409;-48
2022/05/31 04:53:41;;;;;;;7.35;1.75;;;;;;;21.19;34.42;98215.47;5092386;28;20394;-48
2022/05/31 04:56:10;;;;;;;8.95;1.73;;;;;;;21.24;34.41;98226.91;5092248;28;20024;-49
2022/05/31 04:58:37;;;;;;;4.28;1.20;;;;;;;21.24;33.97;98229.56;5090969;28;20097;-50
2022/05/31 05:01:06;;;;;;;2.60;1.02;;;;;;;21.15;34.18;98232.06;5092265;28;20051;-50
2022/05/31 05:03:34;;;;;;;9.75;1.30;;;;;;;21.18;34.23;98240.56;5092200;28;20028;-50
2022/05/31 05:06:01;;;;;;;4.93;1.33;;;;;;;21.28;33.94;98249.28;5092229;28;20052;-50
2022/05/31 05:08:28;;;;;;;4.05;1.70;;;;;;;21.24;34.08;98245.56;5090895;28;20390;-48
2022/05/31 05:10:54;;;;;;;15.60;3.22;;;;;;;21.20;34.51;98241.09;5090853;28;20070;-48
2022/05/31 05:13:20;;;;;;;4.03;1.58;;;;;;;21.25;34.22;98260.53;5092357;28;20024;-48
2022/05/31 05:15:46;;;;;;;2.13;0.90;;;;;;;21.23;34.20;98253.84;5091943;28;20028;-48
2022/05/31 05:18:12;;;;;;;15.25;2.38;;;;;;;21.08;34.60;98274.25;5091911;28;20024;-48
2022/05/31 05:20:39;;;;;;;7.78;1.80;;;;;;;20.94;34.86;98252.75;5092035;28;20027;-49
2022/05/31 05:23:08;;;;;;;7.88;1.23;;;;;;;20.83;35.32;98266.47;5073881;28;20032;-48
2022/05/31 05:25:34;;;;;;;8.00;1.52;;;;;;;20.71;36.18;98272.94;5090626;28;20031;-48
2022/05/31 05:28:00;;;;;;;5.85;2.03;;;;;;;20.46;37.68;98262.38;5091941;28;20016;-48
2022/05/31 05:30:40;;;;;;;23.50;2.88;;;;;;;20.12;38.93;98289.72;5091905;28;20481;-48
2022/05/31 05:33:07;;;;;;;17.70;2.40;;;;;;;19.71;40.15;98298.63;5091728;28;20533;-48
2022/05/31 05:35:33;;;;;;;7.95;1.63;;;;;;;19.55;40.64;98299.69;5090446;28;20032;-47
2022/05/31 05:38:02;;;;;;;4.93;1.75;;;;;;;19.49;41.27;98309.53;5091848;28;20141;-48
2022/05/31 05:40:28;;;;;;;11.50;1.77;;;;;;;19.47;41.92;98294.91;5091794;28;20028;-47
2022/05/31 05:42:54;;;;;;;7.22;1.88;;;;;;;19.35;43.10;98317.25;5091842;28;20035;-48
2022/05/31 05:45:20;;;;;;;12.30;2.00;;;;;;;19.13;44.38;98317.53;5091758;28;20024;-48
2022/05/31 05:47:46;;;;;;;22.40;2.65;;;;;;;18.87;45.75;98327.31;5090433;28;20166;-50
2022/05/31 05:50:15;;;;;;;5.78;1.50;;;;;;;18.73;47.31;98295.13;5091766;28;20074;-49
2022/05/31 05:52:42;;;;;;;9.65;2.17;;;;;;;18.51;49.10;98313.94;5091713;28;20024;-47
2022/05/31 05:55:08;;;;;;;10.95;1.85;;;;;;;18.29;50.98;98298.19;5091613;28;20034;-47
2022/05/31 05:57:35;;;;;;;16.02;2.10;;;;;;;17.93;53.69;98321.91;5091628;28;20059;-48
2022/05/31 06:00:01;;;;;;;3.78;1.30;;;;;;;17.56;55.48;98327.22;5091588;28;20024;-48
2022/05/31 06:02:30;;;;;;;7.57;2.05;;;;;;;17.17;57.41;98346.00;5090285;28;20024;-47
2022/05/31 06:05:20;;;;;;;8.73;1.58;;;;;;;17.00;58.43;98343.44;5091605;28;20021;-47
2022/05/31 06:07:55;;;;;;;8.25;2.05;;;;;;;16.79;59.65;98347.72;5091633;28;20035;-47
2022/05/31 06:10:25;;;;;;;21.10;10.30;;;;;;;16.60;61.25;98357.03;5090279;28;20032;-48
2022/05/31 06:13:01;;;;;;;47.05;20.52;;;;;;;16.51;62.55;98365.41;5091856;28;20059;-48
2022/05/31 06:15:32;;;;;;;;;;;;;;;16.46;63.14;98375.97;5091859;28;20025;-48
2022/05/31 06:18:01;;;;;;;54.47;27.05;;;;;;;16.55;63.69;98378.97;5091483;28;19920;-47
2022/05/31 06:20:29;;;;;;;32.75;13.45;;;;;;;16.55;63.83;98374.47;5091411;28;20532;-48
2022/05/31 06:22:56;;;;;;;18.60;9.38;;;;;;;16.53;64.45;98395.09;5090103;28;20020;-47
2022/05/31 06:25:22;;;;;;;60.88;27.65;;;;;;;16.47;64.93;98393.44;5091412;28;20035;-47
2022/05/31 06:27:49;;;;;;;47.53;21.25;;;;;;;16.48;64.95;98399.53;5091395;28;20028;-46
2022/05/31 06:30:16;;;;;;;56.60;23.63;;;;;;;16.58;64.97;98405.78;5094471;28;20133;-47
2022/05/31 06:32:42;;;;;;;39.45;19.02;;;;;;;16.71;64.67;98415.19;5093752;28;20020;-46
2022/05/31 06:35:08;;;;;;;17.80;9.15;;;;;;;16.88;64.70;98409.88;5094727;28;20051;-47
2022/05/31 06:37:34;;;;;;;9.48;5.15;;;;;;;17.07;64.45;98409.53;5095027;28;20027;-47
2022/05/31 06:40:00;;;;;;;11.25;5.15;;;;;;;17.20;63.32;98416.28;5094937;28;20486;-48
2022/05/31 06:42:28;;;;;;;14.77;5.72;;;;;;;17.31;61.85;98418.78;5093590;28;20039;-49
2022/05/31 06:44:56;;;;;;;16.52;7.35;;;;;;;17.56;61.44;98420.06;5093507;28;20020;-47
2022/05/31 06:47:22;;;;;;;11.15;4.20;;;;;;;17.90;60.30;98409.22;5094797;28;20104;-48
2022/05/31 06:49:48;;;;;;;20.08;9.95;;;;;;;18.20;59.60;98418.47;5093404;28;20107;-48
2022/05/31 06:57:46;;;;;;;15.32;8.05;;;;;;;19.10;55.79;98402.41;5094871;28;20031;-48
2022/05/31 07:00:15;;;;;;;11.23;4.63;;;;;;;19.46;54.26;98399.78;5093277;28;20024;-49
2022/05/31 07:02:41;;;;;;;7.72;4.20;;;;;;;19.89;53.56;98397.66;5094530;28;20017;-47
2022/05/31 07:05:10;;;;;;;13.93;3.33;;;;;;;20.51;51.29;98388.47;5094502;28;20031;-48
2022/05/31 07:07:36;;;;;;;4.05;2.30;;;;;;;21.21;50.06;98392.13;5094408;28;20024;-47
2022/05/31 07:10:03;;;;;;;12.13;3.65;;;;;;;21.72;49.26;98395.25;5094371;28;20481;-49
2022/05/31 07:12:30;;;;;;;17.55;5.47;;;;;;;22.25;52.38;98386.47;5094280;28;20055;-50
2022/05/31 07:14:56;;;;;;;31.77;7.43;;;;;;;22.77;48.71;98386.66;5094218;28;20111;-49
2022/05/31 07:17:21;;;;;;;12.93;2.33;;;;;;;23.36;44.96;98384.50;5094291;28;20095;-50
2022/05/31 07:19:47;;;;;;;30.65;5.80;;;;;;;23.89;45.03;98386.88;5094096;28;20405;-48
2022/05/31 07:22:15;;;;;;;61.22;6.30;;;;;;;24.78;42.27;98376.88;5092875;28;20145;-47
2022/05/31 07:24:40;;;;;;;69.65;6.35;;;;;;;25.99;39.87;98370.81;5094129;28;20052;-49
2022/05/31 07:27:06;;;;;;;60.38;6.43;;;;;;;26.73;38.96;98368.56;5094299;28;20067;-48
2022/05/31 07:29:32;;;;;;;47.30;5.32;;;;;;;27.52;37.13;98382.84;5093973;28;20042;-49
2022/05/31 07:32:00;;;;;;;38.20;4.03;;;;;;;28.27;34.96;98367.06;5093980;28;20020;-48
2022/05/31 07:34:26;;;;;;;10.75;2.75;;;;;;;28.76;34.13;98369.38;5092328;28;20044;-50
2022/05/31 07:36:53;;;;;;;28.38;3.80;;;;;;;29.35;32.67;98368.44;5092455;28;20024;-49
2022/05/31 07:39:21;;;;;;;18.80;4.30;;;;;;;29.02;32.22;98369.19;5092476;28;20024;-49
2022/05/31 07:41:49;;;;;;;34.55;5.97;;;;;;;28.00;32.83;98377.19;5092474;28;20037;-50
2022/05/31 07:44:16;;;;;;;26.00;4.03;;;;;;;27.15;34.28;98380.47;5093795;28;20016;-50
2022/05/31 07:46:42;;;;;;;17.33;3.92;;;;;;;26.77;34.63;98380.28;5093659;28;20028;-50
2022/05/31 07:49:09;;;;;;;24.08;3.90;;;;;;;26.57;35.71;98378.94;5093683;28;20099;-49
2022/05/31 07:51:34;;;;;;;16.98;2.22;;;;;;;26.95;34.96;98376.50;5093580;28;20020;-48
2022/05/31 07:54:00;;;;;;;6.65;1.80;;;;;;;27.64;33.84;98380.28;5093586;28;20370;-49
2022/05/31 07:56:28;;;;;;;15.95;2.58;;;;;;;28.44;32.15;98380.47;5093415;28;20115;-49
2022/05/31 07:58:54;;;;;;;14.75;4.07;;;;;;;28.40;31.47;98384.16;5092046;28;20030;-49
2022/05/31 08:01:34;;;;;;;22.90;4.78;;;;;;;28.43;31.37;98384.31;5093433;28;20020;-49
2022/05/31 08:04:02;;;;;;;14.95;4.40;;;;;;;28.42;31.70;98381.94;5093434;28;20132;-49
2022/05/31 08:06:31;;;;;;;12.60;2.03;;;;;;;28.44;31.14;98383.19;5093262;28;20150;-49
2022/05/31 08:08:57;;;;;;;5.63;1.30;;;;;;;28.38;30.53;98384.47;5093236;28;20105;-48
2022/05/31 08:11:40;;;;;;;11.07;2.13;;;;;;;29.50;30.68;98392.16;5093140;28;20032;-48
2022/05/31 08:14:09;;;;;;;7.82;2.05;;;;;;;30.70;28.27;98387.56;5091854;28;20090;-50
2022/05/31 08:16:35;;;;;;;13.02;2.22;;;;;;;30.72;28.21;98387.25;5092949;28;20034;-50
2022/05/31 08:19:04;;;;;;;21.73;2.50;;;;;;;31.63;27.63;98384.03;5093022;28;20024;-51
2022/05/31 08:21:31;;;;;;;3.58;1.73;;;;;;;33.58;25.42;98379.88;5092980;28;20025;-50
2022/05/31 08:24:01;;;;;;;14.88;4.25;;;;;;;35.68;22.88;98384.44;5092926;28;20020;-51
2022/05/31 08:26:55;;;;;;;7.90;3.85;;;;;;;37.57;20.85;98368.38;5092892;28;20031;-50
2022/05/31 08:29:22;;;;;;;3.77;1.60;;;;;;;36.86;20.23;98379.09;5092838;28;20012;-51
2022/05/31 08:31:49;;;;;;;3.28;1.40;;;;;;;35.19;21.70;98389.78;5092785;28;20127;-51
2022/05/31 08:34:14;;;;;;;5.63;1.40;;;;;;;33.62;22.78;98386.22;5092529;28;20146;-50
2022/05/31 08:36:40;;;;;;;7.00;1.48;;;;;;;32.23;24.86;98403.78;5092651;28;20023;-51
2022/05/31 08:39:07;;;;;;;4.30;1.55;;;;;;;31.04;26.29;98397.13;5092696;28;20040;-51
2022/05/31 08:41:39;;;;;;;4.80;1.27;;;;;;;30.42;27.37;98396.41;5092602;28;20126;-50
2022/05/31 08:44:33;;;;;;;8.32;3.50;;;;;;;29.88;28.20;98399.25;5092621;28;20035;-50
2022/05/31 08:47:18;;;;;;;8.32;2.53;;;;;;;29.26;28.45;98400.97;5091200;28;20032;-50
2022/05/31 08:52:48;;;;;;;29.45;4.07;;;;;;;28.47;30.43;98409.53;5092030;28;20051;-51
2022/05/31 08:58:21;;;;;;;36.70;3.15;;;;;;;29.21;29.89;98412.75;5092682;28;20039;-49
2022/05/31 09:00:51;;;;;;;51.25;3.85;;;;;;;29.45;29.63;98403.16;5091009;28;20413;-49
2022/05/31 09:03:21;;;;;;;46.60;4.22;;;;;;;29.58;29.63;98404.00;5090945;28;20073;-49
2022/05/31 09:06:09;;;;;;;15.18;1.85;;;;;;;29.78;29.27;98402.38;5092200;28;20111;-51
2022/05/31 09:09:01;;;;;;;16.52;2.08;;;;;;;29.98;29.20;98401.56;5092219;28;20099;-51
2022/05/31 09:11:42;;;;;;;15.88;1.98;;;;;;;30.75;28.16;98411.72;5090926;28;20390;-51
2022/05/31 09:14:17;;;;;;;10.55;1.67;;;;;;;31.21;27.30;98406.09;5092159;28;20032;-51
2022/05/31 09:17:02;;;;;;;17.20;2.35;;;;;;;31.15;26.99;98419.13;5092018;28;20085;-51
2022/05/31 09:20:08;;;;;;;17.77;2.88;;;;;;;30.43;27.71;98411.53;5092172;28;20107;-50
2022/05/31 09:22:37;;;;;;;23.13;2.22;;;;;;;29.98;28.75;98414.28;5092113;28;20077;-51
2022/05/31 09:25:05;;;;;;;51.00;4.95;;;;;;;29.69;29.29;98415.97;5091906;28;20031;-48
2022/05/31 09:27:45;;;;;;;6.38;1.52;;;;;;;29.31;29.58;98418.88;5091932;28;20027;-50
2022/05/31 09:30:28;;;;;;;9.63;2.15;;;;;;;28.73;29.59;98421.31;5091986;28;20028;-51
2022/05/31 09:33:27;;;;;;;13.45;1.70;;;;;;;27.76;32.15;98437.03;5091985;28;20028;-49
2022/05/31 09:36:07;;;;;;;7.03;1.45;;;;;;;26.58;35.73;98437.06;5091870;28;20147;-49
2022/05/31 09:38:42;;;;;;;19.75;2.88;;;;;;;25.55;39.69;98438.84;5091897;28;20064;-50
2022/05/31 09:41:33;;;;;;;7.55;1.30;;;;;;;24.70;40.97;98444.69;5091805;28;20112;-51
2022/05/31 09:44:10;;;;;;;14.50;1.88;;;;;;;23.77;44.36;98450.06;5091895;28;20024;-48
2022/05/31 09:47:11;;;;;;;5.05;1.55;;;;;;;23.08;45.22;98445.16;5092031;28;20399;-49
2022/05/31 09:49:48;;;;;;;9.77;2.25;;;;;;;22.45;47.81;98438.94;5088639;28;20036;-49
2022/05/31 09:52:29;;;;;;;12.02;2.30;;;;;;;22.17;49.26;98440.53;5090469;28;20024;-50
2022/05/31 09:58:31;;;;;;;14.30;3.38;;;;;;;21.67;54.15;98439.88;5091948;28;20043;-50
2022/05/31 10:00:56;;;;;;;11.18;1.90;;;;;;;21.99;52.08;98442.03;5091662;28;20028;-51
2022/05/31 10:03:46;;;;;;;3.95;1.40;;;;;;;22.09;50.40;98441.13;5091934;28;20028;-51
2022/05/31 10:06:18;;;;;;;43.53;3.55;;;;;;;22.14;50.48;98449.13;5095718;28;20382;-49
2022/05/31 10:08:47;;;;;;;7.55;2.15;;;;;;;22.26;49.73;98456.78;5094318;28;20495;-49
2022/05/31 10:11:22;;;;;;;28.48;3.78;;;;;;;22.28;49.08;98462.66;5095555;28;20048;-50
2022/05/31 10:14:03;;;;;;;12.55;1.90;;;;;;;22.19;48.39;98453.59;5095530;28;20067;-49
2022/05/31 10:16:34;;;;;;;21.50;2.65;;;;;;;22.15;48.71;98445.34;5094103;28;20111;-49
2022/05/31 10:19:05;;;;;;;21.30;2.80;;;;;;;22.34;48.43;98446.28;5095460;28;20024;-49
2022/05/31 10:21:42;;;;;;;23.08;2.78;;;;;;;22.30;50.43;98450.59;5095333;28;20024;-49
2022/05/31 10:24:15;;;;;;;30.52;3.20;;;;;;;22.10;51.02;98456.91;5094037;28;20035;-50
2022/05/31 10:26:43;;;;;;;47.60;5.20;;;;;;;22.17;52.51;98445.06;5095281;28;20482;-50
2022/05/31 10:29:25;;;;;;;12.15;2.00;;;;;;;22.40;50.28;98455.03;5095114;28;20035;-50
2022/05/31 10:31:58;;;;;;;6.03;1.92;;;;;;;22.61;49.18;98452.94;5094139;28;20028;-50
2022/05/31 10:34:40;;;;;;;6.82;2.22;;;;;;;22.65;48.63;98447.81;5094887;28;20587;-50
2022/05/31 10:37:22;;;;;;;13.68;3.83;;;;;;;22.73;49.32;98450.63;5094959;28;20017;-50
2022/05/31 10:40:04;;;;;;;3.55;1.40;;;;;;;22.93;48.45;98444.25;5095053;28;20068;-50
2022/05/31 10:42:36;;;;;;;7.45;2.50;;;;;;;23.12;47.79;98449.66;5095049;28;20031;-49
2022/05/31 10:45:06;;;;;;;12.23;3.97;;;;;;;23.48;47.99;98451.03;5094951;28;20035;-50
2022/05/31 10:47:32;;;;;;;4.82;1.45;;;;;;;23.71;46.50;98454.72;5094946;28;20069;-49
2022/05/31 10:50:02;;;;;;;4.20;1.83;;;;;;;23.66;46.56;98460.13;5094781;28;20030;-49
2022/05/31 10:52:53;;;;;;;6.25;2.95;;;;;;;23.54;47.20;98473.97;5095008;28;20016;-49
2022/05/31 10:55:35;;;;;;;3.83;1.70;;;;;;;23.43;46.63;98481.38;5094598;28;20158;-49
2022/05/31 10:58:09;;;;;;;7.38;3.08;;;;;;;23.29;47.21;98500.03;5093368;28;20084;-49
2022/05/31 11:00:51;;;;;;;3.13;1.52;;;;;;;23.16;48.01;98514.16;5093213;28;20509;-49
2022/05/31 11:03:28;;;;;;;6.30;1.67;;;;;;;23.04;50.34;98521.75;5094572;28;20032;-48
2022/05/31 11:06:12;;;;;;;10.60;2.85;;;;;;;22.79;54.45;98537.00;5094474;28;20032;-48
2022/05/31 11:12:27;;;;;;;8.45;2.47;;;;;;;21.54;61.32;98537.47;5094636;28;20038;-49
2022/05/31 11:15:09;;;;;;;7.72;2.50;;;;;;;20.77;63.06;98534.28;5093822;28;20035;-49
2022/05/31 11:18:05;;;;;;;7.43;2.45;;;;;;;20.15;64.91;98536.97;5094271;28;20040;-49
2022/05/31 11:20:38;;;;;;;8.60;3.50;;;;;;;20.09;66.62;98536.16;5094159;28;20436;-49
2022/05/31 11:23:38;;;;;;;8.50;2.70;;;;;;;20.01;65.83;98543.91;5094287;28;20024;-49
2022/05/31 11:26:43;;;;;;;9.57;2.55;;;;;;;19.85;67.44;98545.75;5061553;28;20060;-49
2022/05/31 11:29:43;;;;;;;16.75;3.40;;;;;;;19.59;66.80;98544.88;5094093;28;20031;-48
2022/05/31 11:32:27;;;;;;;18.58;3.17;;;;;;;19.47;65.93;98550.41;5094015;28;20020;-49
2022/05/31 11:35:19;;;;;;;25.50;5.15;;;;;;;19.33;65.14;98555.44;5093539;28;20547;-48
2022/05/31 11:37:56;;;;;;;19.05;4.05;;;;;;;19.07;66.46;98562.50;5092419;28;20043;-49
2022/05/31 11:40:21;;;;;;;20.92;3.38;;;;;;;18.81;66.86;98543.75;5093839;28;20023;-50
2022/05/31 11:43:15;;;;;;;13.52;3.13;;;;;;;18.68;67.74;98541.53;5092430;28;20023;-50
2022/05/31 11:45:59;;;;;;;13.70;5.43;;;;;;;18.51;67.43;98542.47;5093736;28;20490;-49
2022/05/31 11:49:06;;;;;;;10.75;3.10;;;;;;;18.38;68.62;98534.16;5092449;28;20025;-48
2022/05/31 11:52:08;;;;;;;7.43;4.35;;;;;;;18.40;69.73;98532.81;5030997;28;20048;-49
2022/05/31 11:58:15;;;;;;;14.07;5.70;;;;;;;18.44;71.14;98541.88;5031440;28;20458;-48
2022/05/31 12:00:49;;;;;;;14.38;4.25;;;;;;;18.46;71.35;98544.31;5014480;28;20466;-50
2022/05/31 12:03:47;;;;;;;16.40;7.05;;;;;;;18.52;72.06;98546.72;5031051;28;20072;-51
2022/05/31 12:06:26;;;;;;;13.90;5.00;;;;;;;18.68;71.65;98546.84;5030643;28;20589;-49
2022/05/31 12:09:19;;;;;;;11.05;3.55;;;;;;;18.80;71.75;98544.03;5030944;28;20041;-49
2022/05/31 12:12:16;;;;;;;7.18;2.50;;;;;;;18.88;70.36;98544.31;5030889;28;20030;-49
2022/05/31 12:14:48;;;;;;;379.75;42.25;;;;;;;18.95;72.38;98530.78;5025312;28;20041;-50
2022/05/31 12:17:16;;;;;;;10.45;3.60;;;;;;;19.17;70.72;98543.91;5014140;28;20061;-49